createdAt,value
2022-08-20T00:00:49.851Z,937.79
2022-08-20T00:01:50.903Z,937.79
2022-08-20T00:02:51.360Z,937.75
2022-08-20T00:03:53.366Z,937.77
2022-08-20T00:04:52.140Z,937.78
2022-08-20T00:05:53.040Z,937.8
2022-08-20T00:06:53.861Z,937.8
2022-08-20T00:07:54.125Z,937.8
2022-08-20T00:08:54.360Z,937.77
2022-08-20T00:09:54.561Z,937.76
2022-08-20T00:10:55.813Z,937.76
2022-08-20T00:11:56.058Z,937.77
2022-08-20T00:12:56.968Z,937.75
2022-08-20T00:13:57.458Z,937.74
2022-08-20T00:14:58.353Z,937.79
2022-08-20T00:15:59.274Z,937.72
2022-08-20T00:17:00.024Z,937.72
2022-08-20T00:18:00.095Z,937.74
2022-08-20T00:19:00.323Z,937.72
2022-08-20T00:20:01.238Z,937.71
2022-08-20T00:21:02.155Z,937.73
2022-08-20T00:22:03.064Z,937.72
2022-08-20T00:23:06.235Z,937.7
2022-08-20T00:24:04.221Z,937.72
2022-08-20T00:25:04.439Z,937.68
2022-08-20T00:26:05.347Z,937.72
2022-08-20T00:27:05.562Z,937.71
2022-08-20T00:28:06.053Z,937.72
2022-08-20T00:29:06.501Z,937.81
2022-08-20T00:30:07.227Z,937.83
2022-08-20T00:31:07.841Z,937.82
2022-08-20T00:32:08.466Z,937.79
2022-08-20T00:33:09.380Z,937.83
2022-08-20T00:34:10.306Z,937.86
2022-08-20T00:35:12.939Z,937.84
2022-08-20T00:36:11.709Z,937.87
2022-08-20T00:37:12.520Z,937.83
2022-08-20T00:38:13.161Z,937.87
2022-08-20T00:39:13.888Z,937.87
2022-08-20T00:40:22.597Z,937.84
2022-08-20T00:41:15.002Z,937.85
2022-08-20T00:42:15.497Z,937.81
2022-08-20T00:43:16.135Z,937.83
2022-08-20T00:44:16.770Z,937.84
2022-08-20T00:45:17.261Z,937.84
2022-08-20T00:46:17.461Z,937.85
2022-08-20T00:47:18.226Z,937.87
2022-08-20T00:48:19.142Z,937.83
2022-08-20T00:49:20.167Z,937.82
2022-08-20T00:50:20.805Z,937.81
2022-08-20T00:51:21.447Z,937.8
2022-08-20T00:52:22.171Z,937.84
2022-08-20T00:53:23.186Z,937.83
2022-08-20T00:54:23.383Z,937.84
2022-08-20T00:55:25.654Z,937.83
2022-08-20T00:56:24.581Z,937.8
2022-08-20T00:57:25.500Z,937.87
2022-08-20T00:58:26.570Z,937.87
2022-08-20T00:59:27.019Z,937.9
2022-08-20T01:00:27.515Z,937.84
2022-08-20T01:01:27.776Z,937.86
2022-08-20T01:02:28.202Z,937.9
2022-08-20T01:03:28.571Z,937.92
2022-08-20T01:04:28.762Z,937.88
2022-08-20T01:05:30.102Z,937.92
2022-08-20T01:06:30.361Z,937.86
2022-08-20T01:07:31.056Z,937.85
2022-08-20T01:08:31.973Z,937.82
2022-08-20T01:09:59.892Z,937.8
2022-08-20T01:11:00.091Z,937.73
2022-08-20T01:12:01.024Z,937.72
2022-08-20T01:13:01.938Z,937.73
2022-08-20T01:14:02.435Z,937.73
2022-08-20T01:15:02.755Z,937.65
2022-08-20T01:16:03.059Z,937.65
2022-08-20T01:17:03.628Z,937.74
2022-08-20T01:18:04.145Z,937.68
2022-08-20T01:19:04.641Z,937.67
2022-08-20T01:20:17.446Z,937.7
2022-08-20T01:21:18.064Z,937.78
2022-08-20T01:22:18.265Z,937.76
2022-08-20T01:23:19.166Z,937.77
2022-08-20T01:24:19.309Z,937.79
2022-08-20T01:25:19.953Z,937.76
2022-08-20T01:26:20.872Z,937.7
2022-08-20T01:27:21.067Z,937.7
2022-08-20T01:28:21.855Z,937.77
2022-08-20T01:29:22.540Z,937.8
2022-08-20T01:30:22.694Z,937.76
2022-08-20T01:31:23.190Z,937.78
2022-08-20T01:32:24.109Z,937.78
2022-08-20T01:33:24.453Z,937.8
2022-08-20T01:34:24.640Z,937.76
2022-08-20T01:35:25.542Z,937.76
2022-08-20T01:36:26.460Z,937.79
2022-08-20T01:37:28.658Z,937.73
2022-08-20T01:38:28.121Z,937.69
2022-08-20T01:39:29.141Z,937.72
2022-08-20T01:40:29.809Z,937.7
2022-08-20T01:41:30.317Z,937.7
2022-08-20T01:42:31.229Z,937.71
2022-08-20T01:43:32.313Z,937.65
2022-08-20T01:44:32.865Z,937.68
2022-08-20T01:45:33.096Z,937.66
2022-08-20T01:46:34.961Z,937.72
2022-08-20T01:47:38.296Z,937.7
2022-08-20T01:48:35.080Z,937.72
2022-08-20T01:49:36.003Z,937.7
2022-08-20T01:50:36.732Z,937.71
2022-08-20T01:51:37.618Z,937.69
2022-08-20T01:52:37.891Z,937.7
2022-08-20T01:53:38.809Z,937.64
2022-08-20T01:54:39.430Z,937.67
2022-08-20T01:55:40.028Z,937.65
2022-08-20T01:56:40.525Z,937.68
2022-08-20T01:57:40.718Z,937.69
2022-08-20T01:58:41.410Z,937.72
2022-08-20T01:59:42.344Z,937.74
2022-08-20T02:00:42.925Z,937.71
2022-08-20T02:01:46.083Z,937.73
2022-08-20T02:02:43.732Z,937.71
2022-08-20T02:03:44.693Z,937.74
2022-08-20T02:04:44.400Z,937.8
2022-08-20T02:05:45.322Z,937.79
2022-08-20T02:06:56.929Z,937.78
2022-08-20T02:07:46.265Z,937.78
2022-08-20T02:08:47.290Z,937.78
2022-08-20T02:09:47.494Z,937.77
2022-08-20T02:10:48.196Z,937.77
2022-08-20T02:11:48.811Z,937.78
2022-08-20T02:12:49.706Z,937.84
2022-08-20T02:13:49.905Z,937.75
2022-08-20T02:14:50.785Z,937.73
2022-08-20T02:15:51.703Z,937.77
2022-08-20T02:16:54.657Z,937.81
2022-08-20T02:17:52.323Z,937.77
2022-08-20T02:18:53.244Z,937.77
2022-08-20T02:19:54.158Z,937.75
2022-08-20T02:20:54.586Z,937.75
2022-08-20T02:21:54.781Z,937.79
2022-08-20T02:22:55.010Z,937.77
2022-08-20T02:23:56.049Z,937.76
2022-08-20T02:24:56.308Z,937.72
2022-08-20T02:25:57.225Z,937.74
2022-08-20T02:26:58.145Z,937.76
2022-08-20T02:27:59.066Z,937.71
2022-08-20T02:28:59.261Z,937.73
2022-08-20T02:29:59.815Z,937.71
2022-08-20T02:31:05.161Z,937.7
2022-08-20T02:32:23.861Z,937.69
2022-08-20T02:33:06.810Z,937.65
2022-08-20T02:34:14.671Z,937.68
2022-08-20T02:35:07.742Z,937.74
2022-08-20T02:36:07.957Z,937.7
2022-08-20T02:37:08.299Z,937.71
2022-08-20T02:38:08.912Z,937.7
2022-08-20T02:39:09.831Z,937.69
2022-08-20T02:40:10.432Z,937.69
2022-08-20T02:41:11.322Z,937.71
2022-08-20T02:42:11.810Z,937.72
2022-08-20T02:43:12.447Z,937.71
2022-08-20T02:44:12.650Z,937.75
2022-08-20T02:45:14.856Z,937.71
2022-08-20T02:46:13.568Z,937.69
2022-08-20T02:47:14.380Z,937.71
2022-08-20T02:48:15.277Z,937.74
2022-08-20T02:49:15.381Z,937.72
2022-08-20T02:50:15.980Z,937.75
2022-08-20T02:51:16.430Z,937.79
2022-08-20T02:52:17.347Z,937.77
2022-08-20T02:53:17.966Z,937.76
2022-08-20T02:54:18.156Z,937.72
2022-08-20T02:55:23.079Z,937.77
2022-08-20T02:56:18.765Z,937.75
2022-08-20T02:57:18.960Z,937.72
2022-08-20T02:58:19.885Z,937.75
2022-08-20T02:59:20.799Z,937.79
2022-08-20T03:00:21.426Z,937.73
2022-08-20T03:01:21.893Z,937.71
2022-08-20T03:02:22.100Z,937.73
2022-08-20T03:03:22.295Z,937.74
2022-08-20T03:04:22.910Z,937.72
2022-08-20T03:05:23.085Z,937.7
2022-08-20T03:06:24.015Z,937.71
2022-08-20T03:07:24.934Z,937.68
2022-08-20T03:08:25.833Z,937.7
2022-08-20T03:09:26.475Z,937.65
2022-08-20T03:10:27.094Z,937.63
2022-08-20T03:11:27.803Z,937.65
2022-08-20T03:12:28.590Z,937.66
2022-08-20T03:13:29.041Z,937.62
2022-08-20T03:14:29.250Z,937.6
2022-08-20T03:15:29.448Z,937.64
2022-08-20T03:16:30.358Z,937.64
2022-08-20T03:17:30.849Z,937.6
2022-08-20T03:18:31.340Z,937.65
2022-08-20T03:19:32.290Z,937.67
2022-08-20T03:20:32.908Z,937.71
2022-08-20T03:21:33.016Z,937.73
2022-08-20T03:22:33.211Z,937.73
2022-08-20T03:23:33.553Z,937.73
2022-08-20T03:24:33.753Z,937.75
2022-08-20T03:25:34.352Z,937.73
2022-08-20T03:26:34.973Z,937.79
2022-08-20T03:27:36.346Z,937.81
2022-08-20T03:28:35.707Z,937.79
2022-08-20T03:29:36.116Z,937.8
2022-08-20T03:30:37.016Z,937.83
2022-08-20T03:31:37.753Z,937.89
2022-08-20T03:32:37.970Z,937.89
2022-08-20T03:33:38.462Z,937.9
2022-08-20T03:34:38.972Z,937.9
2022-08-20T03:35:39.604Z,937.93
2022-08-20T03:36:40.524Z,937.89
2022-08-20T03:37:42.192Z,937.89
2022-08-20T03:38:41.921Z,937.92
2022-08-20T03:39:42.140Z,937.91
2022-08-20T03:40:42.685Z,937.9
2022-08-20T03:41:43.442Z,937.9
2022-08-20T03:42:44.380Z,937.9
2022-08-20T03:43:44.597Z,937.91
2022-08-20T03:44:45.525Z,937.86
2022-08-20T03:45:45.765Z,937.9
2022-08-20T03:46:46.659Z,937.92
2022-08-20T03:47:47.314Z,937.93
2022-08-20T03:48:47.825Z,937.89
2022-08-20T03:49:48.609Z,937.94
2022-08-20T03:50:49.223Z,937.93
2022-08-20T03:51:59.084Z,937.92
2022-08-20T03:52:59.985Z,937.94
2022-08-20T03:54:00.503Z,937.98
2022-08-20T03:55:00.690Z,937.98
2022-08-20T03:56:02.391Z,937.97
2022-08-20T03:57:01.690Z,937.98
2022-08-20T03:58:02.679Z,937.98
2022-08-20T03:59:03.592Z,938.05
2022-08-20T04:00:04.242Z,938.02
2022-08-20T04:01:04.888Z,938
2022-08-20T04:02:29.634Z,937.95
2022-08-20T04:03:30.555Z,938.03
2022-08-20T04:04:31.171Z,938
2022-08-20T04:05:32.115Z,937.99
2022-08-20T04:06:32.331Z,937.94
2022-08-20T04:07:33.067Z,937.96
2022-08-20T04:08:33.591Z,938
2022-08-20T04:09:34.079Z,938.01
2022-08-20T04:10:34.273Z,938.01
2022-08-20T04:11:35.201Z,937.99
2022-08-20T04:12:35.835Z,937.98
2022-08-20T04:13:40.195Z,938.02
2022-08-20T04:14:37.415Z,938
2022-08-20T04:15:38.117Z,938.02
2022-08-20T04:16:38.625Z,937.99
2022-08-20T04:17:38.812Z,937.99
2022-08-20T04:18:39.049Z,937.98
2022-08-20T04:19:39.836Z,937.98
2022-08-20T04:20:40.056Z,937.99
2022-08-20T04:21:40.997Z,937.99
2022-08-20T04:22:41.582Z,938.02
2022-08-20T04:23:42.538Z,938.01
2022-08-20T04:24:43.035Z,938
2022-08-20T04:25:43.956Z,938.03
2022-08-20T04:26:44.732Z,938.03
2022-08-20T04:27:45.590Z,938.06
2022-08-20T04:28:45.818Z,938.09
2022-08-20T04:29:46.314Z,938.08
2022-08-20T04:30:51.624Z,938.08
2022-08-20T04:31:47.497Z,938.11
2022-08-20T04:32:47.661Z,938.14
2022-08-20T04:33:47.917Z,938.13
2022-08-20T04:34:48.528Z,938.15
2022-08-20T04:35:49.022Z,938.15
2022-08-20T04:36:49.230Z,938.14
2022-08-20T04:37:49.627Z,938.16
2022-08-20T04:38:51.085Z,938.18
2022-08-20T04:39:50.423Z,938.18
2022-08-20T04:40:50.775Z,938.17
2022-08-20T04:41:51.414Z,938.17
2022-08-20T04:42:53.254Z,938.18
2022-08-20T04:43:52.721Z,938.16
2022-08-20T04:44:53.117Z,938.17
2022-08-20T04:45:53.839Z,938.14
2022-08-20T04:46:54.460Z,938.17
2022-08-20T04:47:55.208Z,938.17
2022-08-20T04:48:55.730Z,938.2
2022-08-20T04:49:57.405Z,938.15
2022-08-20T04:50:56.626Z,938.19
2022-08-20T04:51:57.205Z,938.19
2022-08-20T04:52:57.632Z,938.22
2022-08-20T04:53:58.132Z,938.22
2022-08-20T04:54:58.349Z,938.21
2022-08-20T04:55:59.422Z,938.21
2022-08-20T04:57:00.362Z,938.21
2022-08-20T04:58:01.299Z,938.2
2022-08-20T04:59:02.226Z,938.23
2022-08-20T05:00:03.144Z,938.27
2022-08-20T05:01:03.505Z,938.28
2022-08-20T05:02:04.474Z,938.28
2022-08-20T05:03:04.927Z,938.3
2022-08-20T05:04:05.848Z,938.33
2022-08-20T05:05:06.049Z,938.3
2022-08-20T05:06:06.247Z,938.32
2022-08-20T05:07:06.864Z,938.31
2022-08-20T05:08:11.625Z,938.31
2022-08-20T05:09:08.091Z,938.33
2022-08-20T05:10:08.199Z,938.36
2022-08-20T05:11:30.236Z,938.36
2022-08-20T05:12:09.404Z,938.39
2022-08-20T05:13:10.024Z,938.42
2022-08-20T05:14:10.396Z,938.43
2022-08-20T05:15:11.323Z,938.42
2022-08-20T05:16:11.546Z,938.41
2022-08-20T05:17:12.470Z,938.42
2022-08-20T05:18:13.391Z,938.44
2022-08-20T05:19:14.312Z,938.47
2022-08-20T05:20:14.931Z,938.48
2022-08-20T05:21:15.844Z,938.51
2022-08-20T05:22:16.745Z,938.47
2022-08-20T05:23:17.680Z,938.53
2022-08-20T05:24:18.169Z,938.52
2022-08-20T05:25:18.787Z,938.51
2022-08-20T05:26:18.983Z,938.52
2022-08-20T05:27:24.508Z,938.51
2022-08-20T05:28:20.333Z,938.53
2022-08-20T05:29:20.633Z,938.53
2022-08-20T05:30:21.552Z,938.57
2022-08-20T05:31:22.371Z,938.54
2022-08-20T05:32:23.469Z,938.54
2022-08-20T05:33:24.253Z,938.56
2022-08-20T05:34:24.474Z,938.54
2022-08-20T05:35:25.400Z,938.57
2022-08-20T05:36:26.324Z,938.57
2022-08-20T05:37:26.523Z,938.56
2022-08-20T05:38:27.036Z,938.57
2022-08-20T05:39:27.206Z,938.58
2022-08-20T05:40:27.873Z,938.6
2022-08-20T05:41:29.494Z,938.57
2022-08-20T05:42:28.503Z,938.6
2022-08-20T05:43:29.527Z,938.59
2022-08-20T05:44:30.452Z,938.61
2022-08-20T05:45:31.348Z,938.63
2022-08-20T05:46:32.114Z,938.61
2022-08-20T05:47:32.222Z,938.62
2022-08-20T05:48:33.091Z,938.61
2022-08-20T05:49:33.698Z,938.6
2022-08-20T05:50:33.901Z,938.61
2022-08-20T05:51:34.397Z,938.56
2022-08-20T05:52:34.595Z,938.58
2022-08-20T05:53:34.792Z,938.59
2022-08-20T05:54:35.708Z,938.58
2022-08-20T05:55:36.349Z,938.58
2022-08-20T05:56:36.544Z,938.6
2022-08-20T05:57:37.263Z,938.56
2022-08-20T05:58:37.528Z,938.56
2022-08-20T05:59:38.211Z,938.55
2022-08-20T06:00:38.415Z,938.61
2022-08-20T06:01:39.559Z,938.59
2022-08-20T06:02:39.782Z,938.57
2022-08-20T06:03:40.214Z,938.58
2022-08-20T06:04:41.117Z,938.57
2022-08-20T06:05:41.722Z,938.57
2022-08-20T06:06:44.430Z,938.64
2022-08-20T06:07:43.615Z,938.65
2022-08-20T06:08:43.772Z,938.64
2022-08-20T06:09:44.662Z,938.62
2022-08-20T06:10:45.166Z,938.64
2022-08-20T06:11:45.373Z,938.62
2022-08-20T06:12:46.424Z,938.62
2022-08-20T06:13:46.729Z,938.62
2022-08-20T06:14:47.352Z,938.65
2022-08-20T06:15:47.571Z,938.67
2022-08-20T06:16:57.475Z,938.68
2022-08-20T06:17:58.316Z,938.68
2022-08-20T06:18:49.099Z,938.67
2022-08-20T06:19:49.878Z,938.68
2022-08-20T06:20:50.823Z,938.7
2022-08-20T06:21:51.738Z,938.69
2022-08-20T06:22:52.279Z,938.73
2022-08-20T06:24:02.475Z,938.7
2022-08-20T06:25:03.461Z,938.73
2022-08-20T06:26:04.136Z,938.73
2022-08-20T06:27:04.263Z,938.72
2022-08-20T06:28:04.470Z,938.76
2022-08-20T06:29:05.417Z,938.81
2022-08-20T06:30:06.483Z,938.81
2022-08-20T06:31:06.684Z,938.83
2022-08-20T06:32:06.906Z,938.84
2022-08-20T06:33:07.807Z,938.81
2022-08-20T06:34:08.108Z,938.83
2022-08-20T06:35:08.326Z,938.83
2022-08-20T06:36:08.953Z,938.84
2022-08-20T06:37:09.192Z,938.86
2022-08-20T06:38:09.466Z,938.85
2022-08-20T06:39:09.963Z,938.85
2022-08-20T06:40:10.406Z,938.87
2022-08-20T06:41:11.138Z,938.86
2022-08-20T06:42:11.504Z,938.84
2022-08-20T06:43:12.519Z,938.84
2022-08-20T06:44:13.274Z,938.9
2022-08-20T06:45:13.473Z,938.9
2022-08-20T06:46:13.751Z,938.86
2022-08-20T06:47:13.973Z,938.82
2022-08-20T06:48:15.040Z,938.87
2022-08-20T06:49:15.446Z,938.88
2022-08-20T06:50:15.918Z,938.89
2022-08-20T06:51:16.548Z,938.91
2022-08-20T06:52:16.769Z,938.91
2022-08-20T06:53:17.104Z,938.92
2022-08-20T06:54:17.533Z,938.9
2022-08-20T06:55:18.026Z,938.9
2022-08-20T06:56:18.246Z,938.91
2022-08-20T06:57:18.746Z,938.92
2022-08-20T06:58:26.796Z,938.94
2022-08-20T06:59:19.947Z,938.95
2022-08-20T07:00:20.855Z,938.93
2022-08-20T07:01:21.446Z,938.95
2022-08-20T07:02:22.439Z,938.91
2022-08-20T07:03:23.168Z,938.92
2022-08-20T07:04:23.315Z,938.93
2022-08-20T07:05:24.227Z,938.91
2022-08-20T07:06:24.433Z,938.94
2022-08-20T07:07:24.771Z,938.91
2022-08-20T07:08:25.783Z,938.93
2022-08-20T07:09:26.122Z,938.93
2022-08-20T07:10:26.323Z,938.96
2022-08-20T07:11:28.342Z,938.95
2022-08-20T07:12:27.112Z,938.93
2022-08-20T07:13:27.334Z,938.93
2022-08-20T07:14:27.787Z,938.93
2022-08-20T07:15:28.446Z,938.94
2022-08-20T07:16:29.367Z,938.93
2022-08-20T07:17:30.022Z,938.95
2022-08-20T07:18:30.923Z,938.95
2022-08-20T07:19:31.437Z,938.91
2022-08-20T07:20:31.950Z,938.99
2022-08-20T07:21:32.143Z,938.97
2022-08-20T07:22:32.343Z,938.97
2022-08-20T07:23:33.297Z,938.96
2022-08-20T07:24:36.714Z,938.99
2022-08-20T07:25:35.321Z,938.98
2022-08-20T07:26:35.543Z,938.96
2022-08-20T07:27:35.648Z,939.01
2022-08-20T07:28:36.146Z,939.02
2022-08-20T07:29:36.776Z,939.01
2022-08-20T07:30:55.680Z,939.03
2022-08-20T07:31:37.720Z,939.03
2022-08-20T07:32:39.399Z,939.02
2022-08-20T07:33:38.781Z,939.06
2022-08-20T07:34:39.260Z,939.08
2022-08-20T07:35:39.785Z,939.06
2022-08-20T07:36:40.730Z,939.08
2022-08-20T07:37:41.649Z,939.12
2022-08-20T07:38:42.273Z,939.11
2022-08-20T07:39:42.547Z,939.13
2022-08-20T07:40:43.434Z,939.12
2022-08-20T07:41:43.695Z,939.12
2022-08-20T07:42:44.767Z,939.09
2022-08-20T07:43:45.943Z,939.07
2022-08-20T07:44:46.225Z,939.08
2022-08-20T07:45:49.778Z,939.18
2022-08-20T07:46:47.584Z,939.15
2022-08-20T07:47:48.207Z,939.12
2022-08-20T07:48:48.871Z,939.15
2022-08-20T07:49:49.812Z,939.17
2022-08-20T07:50:50.034Z,939.2
2022-08-20T07:51:50.257Z,939.21
2022-08-20T07:52:50.718Z,939.2
2022-08-20T07:53:51.615Z,939.22
2022-08-20T07:54:51.905Z,939.21
2022-08-20T07:55:58.741Z,939.25
2022-08-20T07:56:53.247Z,939.24
2022-08-20T07:57:53.797Z,939.21
2022-08-20T07:58:54.522Z,939.26
2022-08-20T07:59:54.738Z,939.27
2022-08-20T08:00:55.398Z,939.28
2022-08-20T08:01:55.808Z,939.29
2022-08-20T08:02:56.366Z,939.3
2022-08-20T08:03:56.702Z,939.28
2022-08-20T08:04:57.012Z,939.29
2022-08-20T08:05:57.230Z,939.29
2022-08-20T08:06:58.083Z,939.3
2022-08-20T08:07:59.004Z,939.33
2022-08-20T08:08:59.785Z,939.35
2022-08-20T08:10:00.009Z,939.32
2022-08-20T08:11:00.507Z,939.33
2022-08-20T08:12:00.657Z,939.33
2022-08-20T08:13:01.278Z,939.36
2022-08-20T08:14:02.218Z,939.31
2022-08-20T08:15:02.348Z,939.3
2022-08-20T08:16:02.552Z,939.33
2022-08-20T08:17:02.761Z,939.34
2022-08-20T08:18:02.963Z,939.38
2022-08-20T08:19:03.612Z,939.36
2022-08-20T08:20:04.254Z,939.33
2022-08-20T08:21:05.257Z,939.32
2022-08-20T08:22:05.466Z,939.27
2022-08-20T08:23:06.374Z,939.31
2022-08-20T08:24:07.369Z,939.32
2022-08-20T08:25:06.610Z,939.3
2022-08-20T08:26:06.820Z,939.34
2022-08-20T08:27:07.687Z,939.35
2022-08-20T08:28:08.588Z,939.37
2022-08-20T08:29:09.513Z,939.35
2022-08-20T08:30:10.436Z,939.32
2022-08-20T08:31:11.350Z,939.35
2022-08-20T08:32:11.574Z,939.33
2022-08-20T08:33:12.621Z,939.33
2022-08-20T08:34:13.116Z,939.38
2022-08-20T08:35:13.575Z,939.4
2022-08-20T08:36:14.204Z,939.37
2022-08-20T08:37:14.827Z,939.42
2022-08-20T08:38:15.038Z,939.43
2022-08-20T08:39:15.541Z,939.45
2022-08-20T08:40:15.774Z,939.44
2022-08-20T08:41:16.312Z,939.45
2022-08-20T08:42:17.237Z,939.44
2022-08-20T08:43:21.310Z,939.46
2022-08-20T08:44:18.455Z,939.44
2022-08-20T08:45:19.481Z,939.49
2022-08-20T08:46:20.380Z,939.53
2022-08-20T08:47:21.297Z,939.53
2022-08-20T08:48:21.947Z,939.55
2022-08-20T08:49:22.448Z,939.56
2022-08-20T08:50:38.451Z,939.55
2022-08-20T08:51:24.527Z,939.57
2022-08-20T08:52:24.759Z,939.56
2022-08-20T08:53:25.026Z,939.59
2022-08-20T08:54:25.963Z,939.55
2022-08-20T08:55:26.448Z,939.54
2022-08-20T08:56:27.097Z,939.58
2022-08-20T08:57:27.530Z,939.59
2022-08-20T08:58:28.178Z,939.57
2022-08-20T08:59:28.825Z,939.58
2022-08-20T09:00:29.346Z,939.53
2022-08-20T09:01:57.057Z,939.57
2022-08-20T09:02:54.671Z,939.58
2022-08-20T09:03:55.347Z,939.57
2022-08-20T09:04:55.953Z,939.58
2022-08-20T09:05:56.835Z,939.55
2022-08-20T09:06:57.051Z,939.58
2022-08-20T09:07:57.556Z,939.54
2022-08-20T09:08:58.193Z,939.54
2022-08-20T09:09:59.109Z,939.55
2022-08-20T09:11:00.184Z,939.54
2022-08-20T09:12:00.531Z,939.55
2022-08-20T09:13:00.759Z,939.55
2022-08-20T09:14:01.689Z,939.51
2022-08-20T09:15:02.183Z,939.54
2022-08-20T09:16:02.762Z,939.51
2022-08-20T09:17:03.391Z,939.48
2022-08-20T09:18:04.314Z,939.55
2022-08-20T09:19:04.516Z,939.58
2022-08-20T09:20:05.442Z,939.57
2022-08-20T09:21:06.450Z,939.6
2022-08-20T09:22:07.415Z,939.6
2022-08-20T09:23:07.908Z,939.59
2022-08-20T09:24:08.812Z,939.6
2022-08-20T09:25:09.719Z,939.58
2022-08-20T09:26:10.031Z,939.57
2022-08-20T09:27:10.872Z,939.6
2022-08-20T09:28:11.117Z,939.6
2022-08-20T09:29:11.474Z,939.6
2022-08-20T09:30:12.287Z,939.63
2022-08-20T09:31:12.952Z,939.55
2022-08-20T09:32:13.254Z,939.54
2022-08-20T09:33:13.264Z,939.56
2022-08-20T09:34:14.184Z,939.6
2022-08-20T09:35:15.105Z,939.56
2022-08-20T09:36:25.598Z,939.55
2022-08-20T09:37:16.514Z,939.53
2022-08-20T09:38:17.086Z,939.55
2022-08-20T09:39:17.293Z,939.6
2022-08-20T09:40:21.180Z,939.58
2022-08-20T09:41:19.046Z,939.58
2022-08-20T09:42:19.995Z,939.61
2022-08-20T09:43:20.929Z,939.59
2022-08-20T09:44:21.578Z,939.59
2022-08-20T09:45:22.053Z,939.6
2022-08-20T09:46:27.116Z,939.57
2022-08-20T09:47:23.722Z,939.55
2022-08-20T09:48:29.673Z,939.54
2022-08-20T09:49:24.691Z,939.52
2022-08-20T09:50:25.633Z,939.54
2022-08-20T09:51:25.835Z,939.51
2022-08-20T09:52:26.275Z,939.5
2022-08-20T09:53:26.524Z,939.52
2022-08-20T09:54:26.727Z,939.56
2022-08-20T09:55:27.025Z,939.53
2022-08-20T09:56:27.491Z,939.52
2022-08-20T09:57:27.697Z,939.53
2022-08-20T09:58:28.679Z,939.52
2022-08-20T09:59:29.730Z,939.49
2022-08-20T10:01:31.179Z,939.51
2022-08-20T10:02:32.050Z,939.46
2022-08-20T10:03:32.691Z,939.45
2022-08-20T10:04:33.411Z,939.45
2022-08-20T10:05:33.532Z,939.44
2022-08-20T10:06:37.658Z,939.38
2022-08-20T10:07:33.957Z,939.37
2022-08-20T10:08:34.604Z,939.34
2022-08-20T10:09:35.100Z,939.39
2022-08-20T10:10:36.025Z,939.37
2022-08-20T10:11:36.685Z,939.36
2022-08-20T10:12:37.583Z,939.38
2022-08-20T10:13:37.691Z,939.38
2022-08-20T10:14:38.344Z,939.38
2022-08-20T10:15:39.043Z,939.38
2022-08-20T10:16:39.159Z,939.39
2022-08-20T10:17:39.819Z,939.37
2022-08-20T10:18:40.296Z,939.36
2022-08-20T10:19:41.228Z,939.35
2022-08-20T10:20:41.851Z,939.32
2022-08-20T10:21:42.385Z,939.32
2022-08-20T10:22:42.991Z,939.32
2022-08-20T10:23:43.592Z,939.31
2022-08-20T10:24:43.949Z,939.33
2022-08-20T10:25:44.179Z,939.32
2022-08-20T10:26:44.339Z,939.31
2022-08-20T10:27:44.560Z,939.3
2022-08-20T10:28:45.473Z,939.33
2022-08-20T10:29:47.082Z,939.29
2022-08-20T10:30:46.805Z,939.26
2022-08-20T10:31:47.746Z,939.25
2022-08-20T10:32:48.643Z,939.24
2022-08-20T10:33:49.148Z,939.23
2022-08-20T10:34:50.059Z,939.21
2022-08-20T10:35:51.004Z,939.22
2022-08-20T10:36:51.202Z,939.18
2022-08-20T10:37:52.002Z,939.14
2022-08-20T10:38:52.451Z,939.15
2022-08-20T10:39:53.093Z,939.17
2022-08-20T10:40:53.429Z,939.12
2022-08-20T10:41:54.327Z,939.13
2022-08-20T10:42:54.956Z,939.12
2022-08-20T10:43:55.286Z,939.13
2022-08-20T10:44:55.780Z,939.13
2022-08-20T10:45:55.982Z,939.17
2022-08-20T10:46:57.163Z,939.16
2022-08-20T10:47:57.862Z,939.25
2022-08-20T10:48:58.442Z,939.22
2022-08-20T10:49:59.078Z,939.24
2022-08-20T10:50:59.986Z,939.26
2022-08-20T10:52:00.638Z,939.24
2022-08-20T10:53:01.625Z,939.22
2022-08-20T10:54:01.834Z,939.19
2022-08-20T10:55:02.726Z,939.19
2022-08-20T10:56:02.953Z,939.19
2022-08-20T10:57:03.067Z,939.19
2022-08-20T10:58:03.695Z,939.16
2022-08-20T10:59:04.199Z,939.12
2022-08-20T11:00:05.124Z,939.16
2022-08-20T11:01:05.776Z,939.15
2022-08-20T11:02:06.012Z,939.15
2022-08-20T11:03:06.707Z,939.1
2022-08-20T11:04:07.633Z,939.13
2022-08-20T11:05:07.839Z,939.12
2022-08-20T11:06:08.471Z,939.05
2022-08-20T11:07:09.522Z,939.09
2022-08-20T11:08:10.506Z,939.06
2022-08-20T11:09:11.183Z,939.03
2022-08-20T11:10:13.716Z,939.02
2022-08-20T11:11:12.457Z,939.01
2022-08-20T11:12:13.363Z,939
2022-08-20T11:13:13.991Z,939.01
2022-08-20T11:14:14.224Z,938.96
2022-08-20T11:15:14.720Z,938.98
2022-08-20T11:16:15.370Z,939
2022-08-20T11:17:16.361Z,938.95
2022-08-20T11:18:16.762Z,938.92
2022-08-20T11:19:17.709Z,938.89
2022-08-20T11:20:18.048Z,938.87
2022-08-20T11:21:18.955Z,938.92
2022-08-20T11:22:19.890Z,938.87
2022-08-20T11:23:20.820Z,938.9
2022-08-20T11:24:21.123Z,938.85
2022-08-20T11:25:22.068Z,938.85
2022-08-20T11:26:22.275Z,938.88
2022-08-20T11:27:22.760Z,938.88
2022-08-20T11:28:31.033Z,938.84
2022-08-20T11:29:23.585Z,938.87
2022-08-20T11:30:24.225Z,938.85
2022-08-20T11:31:25.139Z,938.82
2022-08-20T11:32:26.046Z,938.82
2022-08-20T11:33:26.672Z,938.79
2022-08-20T11:34:26.876Z,938.76
2022-08-20T11:35:43.541Z,938.8
2022-08-20T11:36:27.863Z,938.79
2022-08-20T11:37:28.613Z,938.81
2022-08-20T11:38:29.258Z,938.78
2022-08-20T11:39:29.911Z,938.78
2022-08-20T11:40:30.838Z,938.84
2022-08-20T11:41:31.575Z,938.85
2022-08-20T11:42:31.830Z,938.8
2022-08-20T11:43:32.094Z,938.79
2022-08-20T11:44:32.325Z,938.78
2022-08-20T11:45:32.564Z,938.77
2022-08-20T11:46:33.134Z,938.78
2022-08-20T11:47:34.167Z,938.77
2022-08-20T11:48:34.669Z,938.76
2022-08-20T11:49:34.874Z,938.82
2022-08-20T11:50:35.783Z,938.8
2022-08-20T11:51:39.975Z,938.77
2022-08-20T11:52:36.592Z,938.78
2022-08-20T11:53:36.861Z,938.83
2022-08-20T11:54:37.288Z,938.82
2022-08-20T11:55:38.621Z,938.83
2022-08-20T11:56:39.367Z,938.8
2022-08-20T11:57:39.736Z,938.88
2022-08-20T11:58:40.539Z,938.86
2022-08-20T11:59:41.201Z,938.91
2022-08-20T12:00:42.135Z,938.92
2022-08-20T12:01:46.595Z,938.91
2022-08-20T12:02:43.483Z,938.91
2022-08-20T12:03:44.072Z,938.9
2022-08-20T12:04:44.578Z,938.92
2022-08-20T12:05:44.885Z,938.9
2022-08-20T12:06:45.686Z,938.95
2022-08-20T12:07:46.683Z,938.95
2022-08-20T12:08:47.611Z,939
2022-08-20T12:09:50.740Z,938.98
2022-08-20T12:10:48.879Z,938.99
2022-08-20T12:11:49.977Z,938.99
2022-08-20T12:12:50.482Z,939
2022-08-20T12:13:50.653Z,939
2022-08-20T12:14:51.572Z,939.01
2022-08-20T12:15:51.778Z,939.05
2022-08-20T12:16:51.980Z,939.04
2022-08-20T12:17:53.055Z,939.03
2022-08-20T12:18:53.256Z,939.03
2022-08-20T12:19:54.171Z,939.08
2022-08-20T12:20:54.386Z,939.11
2022-08-20T12:21:55.035Z,939.08
2022-08-20T12:22:56.018Z,939.14
2022-08-20T12:23:56.029Z,939.12
2022-08-20T12:24:56.676Z,939.11
2022-08-20T12:25:57.207Z,939.1
2022-08-20T12:26:57.540Z,939.11
2022-08-20T12:27:57.896Z,939.09
2022-08-20T12:28:58.397Z,939
2022-08-20T12:29:59.304Z,939.04
2022-08-20T12:30:59.501Z,939.07
2022-08-20T12:31:59.702Z,939.08
2022-08-20T12:33:00.607Z,939.08
2022-08-20T12:34:00.937Z,939.07
2022-08-20T12:35:01.529Z,939.04
2022-08-20T12:36:01.729Z,939.03
2022-08-20T12:37:01.936Z,939.02
2022-08-20T12:38:02.740Z,939.04
2022-08-20T12:39:02.946Z,939.05
2022-08-20T12:40:03.180Z,939.03
2022-08-20T12:41:03.461Z,939.01
2022-08-20T12:42:03.961Z,939.01